Yaupon Beach, North Carolina
Current Conditions -  °F | °C
As of 1:35 PM on Tuesday 27 Jan 2015 (Local Time) from KSUT Reporting Station
Overcast Overcast  
Wind Chill: 37°   Ceiling: 3700
Heat Index: 42°   Visibility: 10mi
Dew Point: 31°   Wind: 8mph
Humidity: 64%   Direction: 320°NW
Pressure: 29.8"   Gusts: NA
Location:  33.9216°N, 78.1244°W
Report Text: KSUT 271835Z AUTO 32007KT 10SM SCT027 OVC037 06/M01 A2980 RMK AO2 T00551008
Loading
Personal Weather Stations






























Interactive Weather Map New forecast layout! Learn more

10-Day Weather Forecast

Advertisements
Track Severe Weather on mobile